createdAt,value
2019-04-25T00:01:06.242Z,7.87
2019-04-25T00:03:36.779Z,5.70
2019-04-25T00:06:06.265Z,4.90
2019-04-25T00:08:35.362Z,3.77
2019-04-25T00:11:04.887Z,3.70
2019-04-25T00:13:33.809Z,4.20
2019-04-25T00:16:02.701Z,3.20
2019-04-25T00:18:31.911Z,2.53
2019-04-25T00:21:07.123Z,2.20
2019-04-25T00:23:36.898Z,2.30
2019-04-25T00:26:27.819Z,2.30
2019-04-25T00:28:56.962Z,2.70
2019-04-25T00:31:26.077Z,1.93
2019-04-25T00:33:55.072Z,2.07
2019-04-25T00:36:24.048Z,2.13
2019-04-25T00:38:53.320Z,1.80
2019-04-25T00:41:22.201Z,2.37
2019-04-25T00:43:52.469Z,2.30
2019-04-25T00:46:22.542Z,2.03
2019-04-25T00:48:51.787Z,1.90
2019-04-25T00:51:21.838Z,1.90
2019-04-25T00:53:53.687Z,2.03
2019-04-25T00:56:22.396Z,2.30
2019-04-25T00:59:01.974Z,1.30
2019-04-25T01:01:54.074Z,1.47
2019-04-25T01:04:25.240Z,1.70
2019-04-25T01:06:54.121Z,1.80
2019-04-25T01:09:23.005Z,1.53
2019-04-25T01:11:52.371Z,1.97
2019-04-25T01:14:22.077Z,5.27
2019-04-25T01:16:52.983Z,2.70
2019-04-25T01:19:23.364Z,3.73
2019-04-25T01:21:54.168Z,2.80
2019-04-25T01:24:24.028Z,1.40
2019-04-25T01:26:53.813Z,2.07
2019-04-25T01:29:23.532Z,3.97
2019-04-25T01:31:54.415Z,1.70
2019-04-25T01:34:34.251Z,1.73
2019-04-25T01:37:13.997Z,5.17
2019-04-25T01:39:48.995Z,3.60
2019-04-25T01:42:35.433Z,1.77
2019-04-25T01:45:05.157Z,1.40
2019-04-25T01:47:34.020Z,1.30
2019-04-25T01:50:03.973Z,1.40
2019-04-25T01:52:33.447Z,1.00
2019-04-25T01:55:03.521Z,1.47
2019-04-25T01:57:33.739Z,1.27
2019-04-25T02:00:03.941Z,1.50
2019-04-25T02:02:33.567Z,1.23
2019-04-25T02:05:04.774Z,1.07
2019-04-25T02:07:33.746Z,0.90
2019-04-25T02:10:03.805Z,1.13
2019-04-25T02:12:56.317Z,1.00
2019-04-25T02:15:28.481Z,1.10
2019-04-25T02:17:59.145Z,1.20
2019-04-25T02:20:28.061Z,1.20
2019-04-25T02:22:57.846Z,1.00
2019-04-25T02:25:26.892Z,1.20
2019-04-25T02:27:57.146Z,0.90
2019-04-25T02:30:26.594Z,1.40
2019-04-25T02:32:59.035Z,1.10
2019-04-25T02:35:26.565Z,1.00
2019-04-25T02:37:59.292Z,1.00
2019-04-25T02:40:26.328Z,0.90
2019-04-25T02:42:57.321Z,1.17
2019-04-25T02:45:51.149Z,2.57
2019-04-25T02:48:38.065Z,1.40
2019-04-25T02:51:29.200Z,1.23
2019-04-25T02:53:59.488Z,1.20
2019-04-25T02:56:34.482Z,1.10
2019-04-25T02:59:00.190Z,1.03
2019-04-25T03:01:29.426Z,0.90
2019-04-25T03:03:59.368Z,0.90
2019-04-25T03:06:28.856Z,0.90
2019-04-25T03:08:58.041Z,1.10
2019-04-25T03:11:28.440Z,1.10
2019-04-25T03:13:57.774Z,0.90
2019-04-25T03:16:29.485Z,1.10
2019-04-25T03:19:14.991Z,1.07
2019-04-25T03:21:45.278Z,0.80
2019-04-25T03:24:19.597Z,0.70
2019-04-25T03:26:49.434Z,1.17
2019-04-25T03:29:18.319Z,0.93
2019-04-25T03:31:47.275Z,1.57
2019-04-25T03:34:20.480Z,3.60
2019-04-25T03:36:47.736Z,4.63
2019-04-25T03:39:16.649Z,2.60
2019-04-25T03:41:45.612Z,1.87
2019-04-25T03:44:14.821Z,1.37
2019-04-25T03:46:43.875Z,1.90
2019-04-25T03:49:14.860Z,2.43
2019-04-25T03:51:45.712Z,1.20
2019-04-25T03:54:16.624Z,0.90
2019-04-25T03:56:53.509Z,1.77
2019-04-25T03:59:18.128Z,3.47
2019-04-25T04:01:47.013Z,1.60
2019-04-25T04:04:16.853Z,1.10
2019-04-25T04:06:53.728Z,0.93
2019-04-25T04:09:29.582Z,0.90
2019-04-25T04:12:01.032Z,1.07
2019-04-25T04:14:43.687Z,1.10
2019-04-25T04:17:33.885Z,0.70
2019-04-25T04:20:20.741Z,1.00
2019-04-25T04:22:59.888Z,0.90
2019-04-25T04:25:29.844Z,1.30
2019-04-25T04:28:00.724Z,1.00
2019-04-25T04:30:45.418Z,1.00
2019-04-25T04:33:25.777Z,1.10
2019-04-25T04:35:48.339Z,1.23
2019-04-25T04:38:17.975Z,1.20
2019-04-25T04:40:55.120Z,1.40
2019-04-25T04:43:30.095Z,1.23
2019-04-25T04:45:58.977Z,1.60
2019-04-25T04:48:31.877Z,1.20
2019-04-25T04:51:03.304Z,1.20
2019-04-25T04:53:40.399Z,1.10
2019-04-25T04:56:09.679Z,1.07
2019-04-25T04:58:46.466Z,1.70
2019-04-25T05:01:18.657Z,1.33
2019-04-25T05:04:06.105Z,1.00
2019-04-25T05:07:06.165Z,1.57
2019-04-25T05:09:36.009Z,1.40
2019-04-25T05:12:04.884Z,3.50
2019-04-25T05:14:40.863Z,1.60
2019-04-25T05:17:12.211Z,1.30
2019-04-25T05:19:43.271Z,1.40
2019-04-25T05:22:20.361Z,1.43
2019-04-25T05:24:53.550Z,6.70
2019-04-25T05:27:36.082Z,1.97
2019-04-25T05:29:55.096Z,2.00
2019-04-25T05:32:31.783Z,1.30
2019-04-25T05:35:00.655Z,1.77
2019-04-25T05:37:29.683Z,1.63
2019-04-25T05:39:58.680Z,1.30
2019-04-25T05:42:47.187Z,1.00
2019-04-25T05:45:18.542Z,1.93
2019-04-25T05:47:50.491Z,1.37
2019-04-25T05:50:23.959Z,1.10
2019-04-25T05:52:54.190Z,1.20
2019-04-25T05:55:25.526Z,1.23
2019-04-25T05:57:56.396Z,1.23
2019-04-25T06:00:26.053Z,1.00
2019-04-25T06:02:55.827Z,1.00
2019-04-25T06:05:26.431Z,1.40
2019-04-25T06:07:55.342Z,1.00
2019-04-25T06:10:45.384Z,1.17
2019-04-25T06:13:39.528Z,1.23
2019-04-25T06:16:33.535Z,1.03
2019-04-25T06:19:24.323Z,1.00
2019-04-25T06:21:55.904Z,1.20
2019-04-25T06:24:40.849Z,1.00
2019-04-25T06:27:29.924Z,0.97
2019-04-25T06:30:09.144Z,0.90
2019-04-25T06:32:44.870Z,0.80
2019-04-25T06:35:14.387Z,1.10
2019-04-25T06:37:43.765Z,0.90
2019-04-25T06:40:16.775Z,0.83
2019-04-25T06:42:46.782Z,0.97
2019-04-25T06:45:28.038Z,1.20
2019-04-25T06:48:14.009Z,1.63
2019-04-25T06:50:43.795Z,0.90
2019-04-25T06:53:13.582Z,0.80
2019-04-25T06:55:46.828Z,1.13
2019-04-25T06:58:16.771Z,1.20
2019-04-25T07:00:58.152Z,0.70
2019-04-25T07:03:16.329Z,0.80
2019-04-25T07:05:45.208Z,1.20
2019-04-25T07:08:14.153Z,0.93
2019-04-25T07:10:44.591Z,0.80
2019-04-25T07:13:14.227Z,1.00
2019-04-25T07:15:44.353Z,1.00
2019-04-25T07:18:13.970Z,1.03
2019-04-25T07:20:45.287Z,1.07
2019-04-25T07:23:14.483Z,1.07
2019-04-25T07:25:50.974Z,1.10
2019-04-25T07:28:34.786Z,1.00
2019-04-25T07:31:33.465Z,0.90
2019-04-25T07:34:15.494Z,0.97
2019-04-25T07:36:55.627Z,1.10
2019-04-25T07:39:25.538Z,1.03
2019-04-25T07:41:56.624Z,1.10
2019-04-25T07:44:45.355Z,1.00
2019-04-25T07:47:01.975Z,0.90
2019-04-25T07:49:30.853Z,0.80
2019-04-25T07:51:59.777Z,1.10
2019-04-25T07:54:28.961Z,1.00
2019-04-25T07:56:58.967Z,0.90
2019-04-25T07:59:27.999Z,0.90
2019-04-25T08:01:57.692Z,1.00
2019-04-25T08:04:32.571Z,1.23
2019-04-25T08:07:01.488Z,0.83
2019-04-25T08:09:31.415Z,0.80
2019-04-25T08:12:01.456Z,0.93
2019-04-25T08:14:45.939Z,0.80
2019-04-25T08:17:18.571Z,0.80
2019-04-25T08:19:54.962Z,0.90
2019-04-25T08:22:24.001Z,1.20
2019-04-25T08:24:53.858Z,0.80
2019-04-25T08:27:23.229Z,1.10
2019-04-25T08:29:54.215Z,0.80
2019-04-25T08:32:34.825Z,0.80
2019-04-25T08:35:20.371Z,0.87
2019-04-25T08:38:03.705Z,0.70
2019-04-25T08:40:35.731Z,1.00
2019-04-25T08:43:04.248Z,0.67
2019-04-25T08:45:37.359Z,0.93
2019-04-25T08:48:09.620Z,0.80
2019-04-25T08:50:53.723Z,1.03
2019-04-25T08:53:35.335Z,1.07
2019-04-25T08:56:13.331Z,0.80
2019-04-25T08:59:05.526Z,0.80
2019-04-25T09:01:48.108Z,0.73
2019-04-25T09:04:42.643Z,1.00
2019-04-25T09:07:13.456Z,0.90
2019-04-25T09:09:43.992Z,0.60
2019-04-25T09:12:17.291Z,0.90
2019-04-25T09:14:46.468Z,0.90
2019-04-25T09:17:33.192Z,0.90
2019-04-25T09:20:04.038Z,0.77
2019-04-25T09:22:39.945Z,0.63
2019-04-25T09:25:11.393Z,0.60
2019-04-25T09:27:49.263Z,0.73
2019-04-25T09:30:18.284Z,0.83
2019-04-25T09:32:53.522Z,1.00
2019-04-25T09:35:33.382Z,0.77
2019-04-25T09:38:16.215Z,0.60
2019-04-25T09:40:57.178Z,0.93
2019-04-25T09:43:27.150Z,0.80
2019-04-25T09:46:03.512Z,0.70
2019-04-25T09:48:58.052Z,0.73
2019-04-25T09:51:49.326Z,0.60
2019-04-25T09:54:38.118Z,1.07
2019-04-25T09:57:33.464Z,0.50
2019-04-25T10:00:33.401Z,0.90
2019-04-25T10:03:02.491Z,0.87
2019-04-25T10:05:31.528Z,0.80
2019-04-25T10:08:03.392Z,0.80
2019-04-25T10:10:32.704Z,0.83
2019-04-25T10:13:10.936Z,0.70
2019-04-25T10:16:10.505Z,0.70
2019-04-25T10:18:43.731Z,0.90
2019-04-25T10:21:26.131Z,0.73
2019-04-25T10:23:57.088Z,0.77
2019-04-25T10:26:27.704Z,0.80
2019-04-25T10:28:57.571Z,0.80
2019-04-25T10:31:26.623Z,0.70
2019-04-25T10:33:56.653Z,0.67
2019-04-25T10:36:25.641Z,0.60
2019-04-25T10:39:14.478Z,0.67
2019-04-25T10:41:46.158Z,0.70
2019-04-25T10:44:14.258Z,0.60
2019-04-25T10:46:46.864Z,0.80
2019-04-25T10:49:23.562Z,0.60
2019-04-25T10:51:54.798Z,0.60
2019-04-25T10:54:36.100Z,0.63
2019-04-25T10:57:14.841Z,0.70
2019-04-25T10:59:55.205Z,0.70
2019-04-25T11:02:15.278Z,0.70
2019-04-25T11:04:49.810Z,0.50
2019-04-25T11:07:18.840Z,0.70
2019-04-25T11:09:49.200Z,0.70
2019-04-25T11:12:24.619Z,0.67
2019-04-25T11:14:56.131Z,0.80
2019-04-25T11:17:31.149Z,0.67
2019-04-25T11:20:05.491Z,0.73
2019-04-25T11:22:34.271Z,0.60
2019-04-25T11:25:11.116Z,0.60
2019-04-25T11:27:43.882Z,0.83
2019-04-25T11:30:14.683Z,0.70
2019-04-25T11:32:45.161Z,0.70
2019-04-25T11:35:15.384Z,0.60
2019-04-25T11:37:45.305Z,0.63
2019-04-25T11:40:23.509Z,0.50
2019-04-25T11:42:53.015Z,0.60
2019-04-25T11:45:30.840Z,0.70
2019-04-25T11:48:06.015Z,0.80
2019-04-25T11:50:37.708Z,0.73
2019-04-25T11:53:09.854Z,0.70
2019-04-25T11:55:42.587Z,0.90
2019-04-25T11:58:14.646Z,0.70
2019-04-25T12:00:46.003Z,0.60
2019-04-25T12:03:15.565Z,1.00
2019-04-25T12:05:45.854Z,0.60
2019-04-25T12:08:19.679Z,0.50
2019-04-25T12:10:55.628Z,0.60
2019-04-25T12:13:28.601Z,0.70
2019-04-25T12:15:58.504Z,0.60
2019-04-25T12:18:39.639Z,0.50
2019-04-25T12:21:09.493Z,0.70
2019-04-25T12:23:38.416Z,0.60
2019-04-25T12:26:07.343Z,0.60
2019-04-25T12:28:38.369Z,0.60
2019-04-25T12:31:07.212Z,0.60
2019-04-25T12:33:36.168Z,0.90
2019-04-25T12:36:05.152Z,0.80
2019-04-25T12:38:48.311Z,0.70
2019-04-25T12:41:17.241Z,0.70
2019-04-25T12:43:56.517Z,0.80
2019-04-25T12:46:37.800Z,0.67
2019-04-25T12:49:06.753Z,0.60
2019-04-25T12:51:38.822Z,0.70
2019-04-25T12:54:07.833Z,0.63
2019-04-25T12:56:36.769Z,0.57
2019-04-25T12:59:08.776Z,0.80
2019-04-25T13:01:43.332Z,0.80
2019-04-25T13:04:12.553Z,0.80
2019-04-25T13:06:43.769Z,0.70
2019-04-25T13:09:13.785Z,2.00
2019-04-25T13:11:45.985Z,0.90
2019-04-25T13:14:15.793Z,0.90
2019-04-25T13:16:44.862Z,0.80
2019-04-25T13:19:21.070Z,1.00
2019-04-25T13:21:44.392Z,0.80
2019-04-25T13:24:13.228Z,0.67
2019-04-25T13:27:04.127Z,0.70
2019-04-25T13:29:53.304Z,0.70
2019-04-25T13:32:51.563Z,0.70
2019-04-25T13:35:25.480Z,0.80
2019-04-25T13:37:54.387Z,0.80
2019-04-25T13:40:23.749Z,0.80
2019-04-25T13:42:53.680Z,0.80
2019-04-25T13:45:22.942Z,0.80
2019-04-25T13:48:05.066Z,0.80
2019-04-25T13:50:39.088Z,1.40
2019-04-25T13:53:08.119Z,0.90
2019-04-25T13:55:42.799Z,0.80
2019-04-25T13:58:14.236Z,1.23
2019-04-25T14:00:48.157Z,0.90
2019-04-25T14:03:23.625Z,0.80
2019-04-25T14:05:53.979Z,0.90
2019-04-25T14:08:26.938Z,0.93
2019-04-25T14:10:56.977Z,0.70
2019-04-25T14:13:33.804Z,0.80
2019-04-25T14:16:19.637Z,0.90
2019-04-25T14:19:02.637Z,0.60
2019-04-25T14:21:33.165Z,0.77
2019-04-25T14:24:04.300Z,1.00
2019-04-25T14:26:35.289Z,0.97
2019-04-25T14:29:09.439Z,1.63
2019-04-25T14:31:45.426Z,0.73
2019-04-25T14:34:18.476Z,0.90
2019-04-25T14:36:47.319Z,0.83
2019-04-25T14:39:19.876Z,0.80
2019-04-25T14:41:48.670Z,0.90
2019-04-25T14:44:17.633Z,0.73
2019-04-25T14:46:46.472Z,0.80
2019-04-25T14:49:15.361Z,0.80
2019-04-25T14:51:44.330Z,0.63
2019-04-25T14:54:20.487Z,0.67
2019-04-25T14:56:57.714Z,0.97
2019-04-25T14:59:29.742Z,0.90
2019-04-25T15:01:59.826Z,0.97
2019-04-25T15:04:32.062Z,0.80
2019-04-25T15:07:08.204Z,1.00
2019-04-25T15:09:38.262Z,0.77
2019-04-25T15:12:07.351Z,0.80
2019-04-25T15:14:44.292Z,0.90
2019-04-25T15:17:13.458Z,1.20
2019-04-25T15:19:47.368Z,1.37
2019-04-25T15:22:18.274Z,0.60
2019-04-25T15:24:53.468Z,0.93
2019-04-25T15:27:22.373Z,1.27
2019-04-25T15:29:51.321Z,0.63
2019-04-25T15:32:27.471Z,0.80
2019-04-25T15:35:03.348Z,0.80
2019-04-25T15:37:43.170Z,0.90
2019-04-25T15:40:24.102Z,0.97
2019-04-25T15:43:11.321Z,0.87
2019-04-25T15:46:03.980Z,0.70
2019-04-25T15:48:33.870Z,0.70
2019-04-25T15:51:02.810Z,0.60
2019-04-25T15:53:31.672Z,0.93
2019-04-25T15:56:06.615Z,0.87
2019-04-25T15:58:37.788Z,0.80
2019-04-25T16:01:08.644Z,0.60
2019-04-25T16:03:41.620Z,1.03
2019-04-25T16:06:10.633Z,0.70
2019-04-25T16:08:46.009Z,0.70
2019-04-25T16:11:16.835Z,0.70
2019-04-25T16:13:45.713Z,0.90
2019-04-25T16:16:17.741Z,0.90
2019-04-25T16:18:47.691Z,1.00
2019-04-25T16:21:16.685Z,1.10
2019-04-25T16:23:52.348Z,0.90
2019-04-25T16:26:21.306Z,0.80
2019-04-25T16:28:51.253Z,1.03
2019-04-25T16:31:22.963Z,0.90
2019-04-25T16:33:53.847Z,0.70
2019-04-25T16:36:22.831Z,1.10
2019-04-25T16:39:18.663Z,0.60
2019-04-25T16:41:47.677Z,0.73
2019-04-25T16:44:26.569Z,0.67
2019-04-25T16:46:56.414Z,1.00
2019-04-25T16:49:33.553Z,0.77
2019-04-25T16:52:02.468Z,0.60
2019-04-25T16:54:31.609Z,0.80
2019-04-25T16:57:00.549Z,0.80
2019-04-25T16:59:31.318Z,0.80
2019-04-25T17:02:00.375Z,0.73
2019-04-25T17:04:29.899Z,0.77
2019-04-25T17:07:00.328Z,0.97
2019-04-25T17:09:30.437Z,0.80
2019-04-25T17:11:59.527Z,1.03
2019-04-25T17:14:36.233Z,0.60
2019-04-25T17:17:38.056Z,0.90
2019-04-25T17:20:21.555Z,0.70
2019-04-25T17:22:50.555Z,1.10
2019-04-25T17:25:19.427Z,0.80
2019-04-25T17:27:49.499Z,0.70
2019-04-25T17:30:19.023Z,0.87
2019-04-25T17:32:54.926Z,0.70
2019-04-25T17:35:33.944Z,0.70
2019-04-25T17:38:06.597Z,0.80
2019-04-25T17:40:35.660Z,0.90
2019-04-25T17:43:10.894Z,0.93
2019-04-25T17:45:37.236Z,1.00
2019-04-25T17:48:07.093Z,0.90
2019-04-25T17:50:36.019Z,1.00
2019-04-25T17:53:05.041Z,1.20
2019-04-25T17:55:37.395Z,0.80
2019-04-25T17:58:06.492Z,0.83
2019-04-25T18:00:40.486Z,0.90
2019-04-25T18:03:13.529Z,1.07
2019-04-25T18:05:46.036Z,0.80
2019-04-25T18:08:15.316Z,0.90
2019-04-25T18:10:55.183Z,1.00
2019-04-25T18:13:30.451Z,0.90
2019-04-25T18:16:14.116Z,1.00
2019-04-25T18:19:00.955Z,1.13
2019-04-25T18:21:30.906Z,1.10
2019-04-25T18:24:28.127Z,0.90
2019-04-25T18:27:18.955Z,0.97
2019-04-25T18:29:48.844Z,0.80
2019-04-25T18:32:17.880Z,0.80
2019-04-25T18:34:55.972Z,0.90
2019-04-25T18:37:40.615Z,0.87
2019-04-25T18:40:20.711Z,0.87
2019-04-25T18:43:13.981Z,1.00
2019-04-25T18:45:48.472Z,1.10
2019-04-25T18:48:17.334Z,0.90
2019-04-25T18:50:46.785Z,0.80
2019-04-25T18:53:34.804Z,1.03
2019-04-25T18:56:24.785Z,1.23
2019-04-25T18:59:09.864Z,1.00
2019-04-25T19:02:04.616Z,1.10
2019-04-25T19:04:47.010Z,0.90
2019-04-25T19:07:22.486Z,0.90
2019-04-25T19:09:47.151Z,0.80
2019-04-25T19:12:25.151Z,0.80
2019-04-25T19:15:00.265Z,0.80
2019-04-25T19:17:29.097Z,1.00
2019-04-25T19:20:01.104Z,0.90
2019-04-25T19:22:32.063Z,1.00
2019-04-25T19:25:07.256Z,1.23
2019-04-25T19:27:42.105Z,1.00
2019-04-25T19:30:13.538Z,1.20
2019-04-25T19:32:56.851Z,1.20
2019-04-25T19:35:25.789Z,1.10
2019-04-25T19:37:56.663Z,1.13
2019-04-25T19:40:44.023Z,1.07
2019-04-25T19:43:17.658Z,1.00
2019-04-25T19:45:49.679Z,1.57
2019-04-25T19:48:30.332Z,1.20
2019-04-25T19:50:59.235Z,1.20
2019-04-25T19:53:28.169Z,1.17
2019-04-25T19:55:57.000Z,1.17
2019-04-25T19:58:25.977Z,0.83
2019-04-25T20:00:54.868Z,1.40
2019-04-25T20:03:47.631Z,1.20
2019-04-25T20:06:18.352Z,1.10
2019-04-25T20:09:15.423Z,1.90
2019-04-25T20:11:47.747Z,1.33
2019-04-25T20:14:16.770Z,1.20
2019-04-25T20:16:47.667Z,1.70
2019-04-25T20:19:19.948Z,1.30
2019-04-25T20:21:52.119Z,1.50
2019-04-25T20:24:21.153Z,1.53
2019-04-25T20:26:50.472Z,1.53
2019-04-25T20:29:19.361Z,1.30
2019-04-25T20:31:54.893Z,1.53
2019-04-25T20:34:23.859Z,1.83
2019-04-25T20:36:53.750Z,1.10
2019-04-25T20:39:24.665Z,1.50
2019-04-25T20:42:00.811Z,1.43
2019-04-25T20:44:39.060Z,1.70
2019-04-25T20:47:14.237Z,1.53
2019-04-25T20:49:46.688Z,1.60
2019-04-25T20:52:15.987Z,1.90
2019-04-25T20:54:44.823Z,1.40
2019-04-25T20:57:13.696Z,1.67
2019-04-25T20:59:42.607Z,2.17
2019-04-25T21:02:14.561Z,1.63
2019-04-25T21:04:43.533Z,1.73
2019-04-25T21:07:12.520Z,1.67
2019-04-25T21:09:41.514Z,2.00
2019-04-25T21:12:10.313Z,1.70
2019-04-25T21:14:46.301Z,1.70
2019-04-25T21:17:19.236Z,1.70
2019-04-25T21:19:48.966Z,1.70
2019-04-25T21:22:19.383Z,1.60
2019-04-25T21:24:48.309Z,2.10
2019-04-25T21:27:20.453Z,1.73
2019-04-25T21:29:52.019Z,2.47
2019-04-25T21:32:22.386Z,2.17
2019-04-25T21:34:52.919Z,2.77
2019-04-25T21:37:22.919Z,1.93
2019-04-25T21:40:12.286Z,2.30
2019-04-25T21:43:06.289Z,1.70
2019-04-25T21:45:35.488Z,2.30
2019-04-25T21:48:05.021Z,2.40
2019-04-25T21:50:34.379Z,1.87
2019-04-25T21:53:06.515Z,2.17
2019-04-25T21:55:37.668Z,2.30
2019-04-25T21:58:06.848Z,2.17
2019-04-25T22:01:06.484Z,2.10
2019-04-25T22:03:35.532Z,1.97
2019-04-25T22:06:05.104Z,2.00
2019-04-25T22:08:35.125Z,1.70
2019-04-25T22:11:04.060Z,2.10
2019-04-25T22:13:33.253Z,1.97
2019-04-25T22:16:02.569Z,2.43
2019-04-25T22:18:38.320Z,2.40
2019-04-25T22:21:07.493Z,2.30
2019-04-25T22:23:36.716Z,2.23
2019-04-25T22:26:13.088Z,2.40
2019-04-25T22:28:42.291Z,2.60
2019-04-25T22:31:22.261Z,2.70
2019-04-25T22:34:10.566Z,2.57
2019-04-25T22:36:57.577Z,2.40
2019-04-25T22:39:27.808Z,2.60
2019-04-25T22:42:00.929Z,2.53
2019-04-25T22:44:31.898Z,2.30
2019-04-25T22:47:02.317Z,2.33
2019-04-25T22:49:38.358Z,2.77
2019-04-25T22:52:13.494Z,2.40
2019-04-25T22:54:42.532Z,2.47
2019-04-25T22:57:19.451Z,2.07
2019-04-25T22:59:48.363Z,2.50
2019-04-25T23:02:35.984Z,2.60
2019-04-25T23:05:15.776Z,2.90
2019-04-25T23:07:43.632Z,2.83
2019-04-25T23:10:12.826Z,2.50
2019-04-25T23:12:48.761Z,2.60
2019-04-25T23:15:24.668Z,2.80
2019-04-25T23:17:53.805Z,2.80
2019-04-25T23:20:22.695Z,3.43
2019-04-25T23:22:51.592Z,3.10
2019-04-25T23:25:30.391Z,3.23
2019-04-25T23:28:18.477Z,2.90
2019-04-25T23:31:01.564Z,2.30
2019-04-25T23:33:30.465Z,2.40
2019-04-25T23:36:05.622Z,2.27
2019-04-25T23:38:37.776Z,2.07
2019-04-25T23:41:15.969Z,3.33
2019-04-25T23:43:45.965Z,2.60
2019-04-25T23:46:14.845Z,2.77
2019-04-25T23:48:50.007Z,3.33
2019-04-25T23:51:18.904Z,2.20
2019-04-25T23:53:48.104Z,2.33
2019-04-25T23:56:17.335Z,2.47
2019-04-25T23:58:49.758Z,2.23
